createdAt,value
2018-12-19T00:01:52.092Z,132.87
2018-12-19T00:04:29.818Z,147.03
2018-12-19T00:07:08.126Z,136.37
2018-12-19T00:09:44.182Z,135.43
2018-12-19T00:12:20.126Z,131.23
2018-12-19T00:14:57.090Z,131.53
2018-12-19T00:17:34.975Z,125.77
2018-12-19T00:20:10.832Z,132.07
2018-12-19T00:22:46.776Z,133.20
2018-12-19T00:25:22.725Z,128.87
2018-12-19T00:28:00.909Z,137.03
2018-12-19T00:30:39.218Z,127.57
2018-12-19T00:33:17.287Z,123.00
2018-12-19T00:35:55.684Z,128.60
2018-12-19T00:38:31.787Z,124.43
2018-12-19T00:41:07.453Z,118.70
2018-12-19T00:43:43.305Z,122.70
2018-12-19T00:46:19.158Z,124.70
2018-12-19T00:48:55.003Z,121.33
2018-12-19T00:51:30.765Z,121.23
2018-12-19T00:54:06.585Z,119.97
2018-12-19T00:56:42.389Z,125.63
2018-12-19T00:59:18.404Z,122.27
2018-12-19T01:01:54.261Z,134.80
2018-12-19T01:05:04.196Z,130.57
2018-12-19T01:07:41.287Z,121.57
2018-12-19T01:10:17.316Z,123.73
2018-12-19T01:12:53.167Z,120.93
2018-12-19T01:15:29.017Z,117.47
2018-12-19T01:18:04.847Z,114.17
2018-12-19T01:20:40.732Z,104.37
2018-12-19T01:23:16.622Z,132.50
2018-12-19T01:25:52.535Z,128.00
2018-12-19T01:28:28.328Z,115.93
2018-12-19T01:31:04.449Z,113.07
2018-12-19T01:33:40.270Z,118.33
2018-12-19T01:36:16.411Z,111.40
2018-12-19T01:38:52.462Z,118.10
2018-12-19T01:41:28.415Z,116.93
2018-12-19T01:44:04.500Z,105.37
2018-12-19T01:46:40.050Z,124.17
2018-12-19T01:49:16.016Z,121.03
2018-12-19T01:51:52.115Z,124.40
2018-12-19T01:54:27.981Z,114.17
2018-12-19T01:57:04.829Z,113.87
2018-12-19T01:59:41.169Z,113.77
2018-12-19T02:02:16.899Z,102.77
2018-12-19T02:04:52.708Z,113.57
2018-12-19T02:07:28.579Z,109.03
2018-12-19T02:10:05.506Z,107.53
2018-12-19T02:12:42.057Z,111.20
2018-12-19T02:15:18.547Z,109.27
2018-12-19T02:17:55.663Z,110.27
2018-12-19T02:20:31.689Z,121.10
2018-12-19T02:23:07.978Z,112.70
2018-12-19T02:25:44.578Z,113.90
2018-12-19T02:28:20.192Z,109.87
2018-12-19T02:30:56.120Z,122.77
2018-12-19T02:33:31.890Z,112.90
2018-12-19T02:36:07.576Z,119.67
2018-12-19T02:38:43.590Z,122.30
2018-12-19T02:41:19.577Z,118.13
2018-12-19T02:43:55.638Z,126.00
2018-12-19T02:46:31.518Z,122.43
2018-12-19T02:49:07.558Z,122.13
2018-12-19T02:51:43.541Z,121.30
2018-12-19T02:54:19.540Z,118.83
2018-12-19T02:56:55.284Z,115.53
2018-12-19T02:59:31.301Z,113.90
2018-12-19T03:02:07.153Z,118.40
2018-12-19T03:04:43.126Z,116.67
2018-12-19T03:07:18.830Z,107.67
2018-12-19T03:09:54.957Z,110.80
2018-12-19T03:12:31.823Z,113.83
2018-12-19T03:15:07.795Z,103.00
2018-12-19T03:17:43.443Z,107.60
2018-12-19T03:20:19.358Z,110.17
2018-12-19T03:22:55.431Z,107.67
2018-12-19T03:25:31.411Z,107.67
2018-12-19T03:28:07.260Z,106.07
2018-12-19T03:30:57.127Z,105.43
2018-12-19T03:33:58.863Z,104.80
2018-12-19T03:36:35.301Z,101.37
2018-12-19T03:39:11.278Z,105.33
2018-12-19T03:41:47.321Z,102.13
2018-12-19T03:44:22.863Z,102.47
2018-12-19T03:46:58.991Z,102.77
2018-12-19T03:49:35.273Z,102.53
2018-12-19T03:52:11.440Z,104.33
2018-12-19T03:54:47.582Z,109.10
2018-12-19T03:57:23.951Z,109.33
2018-12-19T04:00:00.531Z,107.43
2018-12-19T04:02:36.662Z,107.03
2018-12-19T04:05:12.492Z,107.37
2018-12-19T04:07:48.415Z,108.57
2018-12-19T04:10:24.206Z,101.73
2018-12-19T04:13:01.003Z,106.10
2018-12-19T04:15:37.154Z,99.87
2018-12-19T04:18:13.398Z,93.87
2018-12-19T04:20:49.034Z,92.67
2018-12-19T04:23:25.014Z,93.47
2018-12-19T04:26:00.870Z,92.13
2018-12-19T04:28:36.792Z,91.23
2018-12-19T04:31:12.968Z,83.30
2018-12-19T04:33:48.837Z,94.03
2018-12-19T04:36:24.935Z,81.80
2018-12-19T04:39:00.723Z,87.77
2018-12-19T04:41:37.645Z,91.70
2018-12-19T04:44:13.685Z,89.10
2018-12-19T04:46:49.544Z,95.93
2018-12-19T04:49:25.466Z,96.00
2018-12-19T04:52:01.430Z,97.23
2018-12-19T04:54:37.168Z,96.90
2018-12-19T04:57:13.051Z,90.63
2018-12-19T04:59:48.812Z,90.07
2018-12-19T05:02:24.586Z,94.80
2018-12-19T05:05:00.527Z,101.27
2018-12-19T05:07:36.635Z,101.47
2018-12-19T05:10:12.585Z,100.17
2018-12-19T05:12:49.054Z,95.73
2018-12-19T05:15:24.977Z,101.27
2018-12-19T05:18:01.231Z,102.10
2018-12-19T05:20:36.879Z,109.90
2018-12-19T05:23:12.929Z,107.30
2018-12-19T05:25:48.651Z,106.33
2018-12-19T05:28:24.440Z,110.33
2018-12-19T05:31:00.104Z,102.40
2018-12-19T05:33:36.054Z,109.07
2018-12-19T05:36:11.853Z,112.27
2018-12-19T05:38:47.906Z,107.87
2018-12-19T05:41:23.648Z,109.50
2018-12-19T05:43:59.479Z,109.30
2018-12-19T05:46:35.573Z,112.97
2018-12-19T05:49:11.561Z,115.83
2018-12-19T05:51:47.517Z,106.50
2018-12-19T05:54:23.691Z,119.03
2018-12-19T05:56:59.665Z,118.20
2018-12-19T05:59:35.576Z,113.97
2018-12-19T06:02:11.959Z,120.20
2018-12-19T06:04:50.298Z,117.07
2018-12-19T06:07:26.093Z,120.27
2018-12-19T06:10:02.344Z,122.53
2018-12-19T06:12:38.002Z,125.03
2018-12-19T06:15:13.888Z,124.93
2018-12-19T06:17:49.496Z,124.37
2018-12-19T06:20:25.567Z,121.73
2018-12-19T06:23:01.521Z,119.07
2018-12-19T06:25:37.219Z,118.37
2018-12-19T06:28:13.091Z,118.40
2018-12-19T06:30:49.097Z,116.97
2018-12-19T06:33:25.104Z,122.33
2018-12-19T06:36:01.229Z,116.07
2018-12-19T06:38:37.660Z,113.57
2018-12-19T06:41:13.789Z,118.90
2018-12-19T06:43:50.000Z,116.27
2018-12-19T06:46:26.719Z,115.60
2018-12-19T06:49:02.482Z,118.27
2018-12-19T06:51:39.361Z,119.80
2018-12-19T06:54:15.216Z,112.40
2018-12-19T06:56:51.318Z,115.90
2018-12-19T06:59:27.340Z,108.43
2018-12-19T07:02:04.455Z,112.73
2018-12-19T07:04:40.880Z,110.37
2018-12-19T07:07:16.719Z,109.13
2018-12-19T07:09:52.742Z,108.17
2018-12-19T07:12:28.490Z,110.23
2018-12-19T07:15:04.736Z,112.03
2018-12-19T07:17:41.200Z,105.97
2018-12-19T07:20:17.204Z,105.43
2018-12-19T07:22:54.226Z,106.87
2018-12-19T07:25:29.978Z,108.73
2018-12-19T07:28:05.743Z,105.70
2018-12-19T07:30:41.750Z,103.33
2018-12-19T07:33:17.756Z,101.33
2018-12-19T07:35:53.672Z,102.50
2018-12-19T07:38:29.467Z,98.47
2018-12-19T07:41:05.128Z,103.80
2018-12-19T07:43:41.118Z,99.43
2018-12-19T07:46:19.930Z,95.77
2018-12-19T07:48:56.055Z,95.27
2018-12-19T07:51:32.172Z,92.47
2018-12-19T07:54:08.436Z,95.53
2018-12-19T07:56:44.055Z,89.30
2018-12-19T07:59:19.784Z,90.33
2018-12-19T08:01:55.631Z,88.83
2018-12-19T08:04:31.445Z,86.83
2018-12-19T08:07:08.147Z,88.43
2018-12-19T08:09:44.229Z,88.20
2018-12-19T08:12:20.180Z,85.80
2018-12-19T08:15:02.785Z,83.40
2018-12-19T08:17:38.925Z,87.73
2018-12-19T08:20:14.978Z,83.27
2018-12-19T08:22:50.792Z,80.73
2018-12-19T08:25:26.746Z,83.80
2018-12-19T08:28:02.497Z,85.77
2018-12-19T08:30:38.452Z,84.77
2018-12-19T08:33:14.107Z,78.83
2018-12-19T08:35:49.858Z,80.63
2018-12-19T08:38:26.078Z,81.57
2018-12-19T08:41:01.718Z,77.10
2018-12-19T08:43:37.693Z,80.60
2018-12-19T08:46:14.614Z,76.73
2018-12-19T08:48:51.217Z,75.90
2018-12-19T08:51:27.567Z,76.87
2018-12-19T08:54:03.686Z,79.30
2018-12-19T08:56:39.491Z,79.20
2018-12-19T08:59:15.262Z,72.20
2018-12-19T09:01:51.165Z,75.57
2018-12-19T09:04:26.829Z,74.13
2018-12-19T09:07:03.023Z,75.73
2018-12-19T09:09:38.695Z,77.23
2018-12-19T09:12:14.574Z,73.33
2018-12-19T09:14:50.334Z,73.93
2018-12-19T09:17:27.490Z,72.70
2018-12-19T09:20:03.724Z,72.10
2018-12-19T09:22:40.024Z,67.17
2018-12-19T09:25:15.835Z,66.83
2018-12-19T09:27:51.612Z,64.67
2018-12-19T09:30:27.681Z,66.57
2018-12-19T09:33:03.324Z,65.70
2018-12-19T09:35:39.253Z,67.70
2018-12-19T09:38:15.267Z,63.20
2018-12-19T09:40:50.930Z,68.90
2018-12-19T09:43:26.917Z,62.17
2018-12-19T09:46:02.694Z,61.67
2018-12-19T09:48:38.810Z,61.43
2018-12-19T09:51:14.706Z,62.10
2018-12-19T09:53:50.610Z,62.50
2018-12-19T09:56:26.290Z,60.53
2018-12-19T09:59:02.125Z,57.43
2018-12-19T10:01:38.066Z,58.70
2018-12-19T10:04:13.897Z,59.20
2018-12-19T10:06:49.869Z,58.60
2018-12-19T10:09:25.920Z,59.23
2018-12-19T10:12:01.906Z,56.40
2018-12-19T10:14:39.021Z,55.43
2018-12-19T10:17:14.518Z,56.23
2018-12-19T10:19:50.684Z,55.77
2018-12-19T10:22:31.722Z,57.40
2018-12-19T10:25:13.073Z,55.17
2018-12-19T10:27:49.865Z,56.87
2018-12-19T10:30:26.470Z,53.70
2018-12-19T10:33:02.296Z,65.67
2018-12-19T10:35:38.176Z,54.80
2018-12-19T10:38:14.219Z,56.93
2018-12-19T10:40:50.563Z,52.37
2018-12-19T10:43:26.334Z,50.23
2018-12-19T10:46:02.187Z,50.27
2018-12-19T10:48:38.139Z,50.73
2018-12-19T10:51:13.884Z,53.47
2018-12-19T10:53:49.874Z,48.23
2018-12-19T10:56:25.632Z,47.90
2018-12-19T10:59:01.626Z,48.70
2018-12-19T11:01:37.487Z,45.63
2018-12-19T11:04:13.657Z,47.17
2018-12-19T11:06:49.523Z,46.93
2018-12-19T11:09:25.636Z,44.27
2018-12-19T11:12:01.318Z,43.17
2018-12-19T11:14:37.186Z,43.03
2018-12-19T11:17:13.028Z,40.47
2018-12-19T11:19:48.738Z,39.87
2018-12-19T11:22:24.624Z,41.70
2018-12-19T11:25:00.466Z,41.53
2018-12-19T11:27:36.235Z,41.50
2018-12-19T11:30:12.151Z,43.70
2018-12-19T11:32:48.010Z,40.90
2018-12-19T11:35:23.998Z,40.10
2018-12-19T11:37:59.893Z,40.43
2018-12-19T11:40:35.577Z,38.30
2018-12-19T11:43:11.726Z,39.50
2018-12-19T11:45:47.738Z,39.20
2018-12-19T11:48:23.662Z,37.73
2018-12-19T11:51:00.500Z,40.17
2018-12-19T11:53:36.374Z,39.40
2018-12-19T11:56:12.167Z,37.07
2018-12-19T11:58:48.020Z,38.73
2018-12-19T12:01:23.913Z,39.53
2018-12-19T12:03:59.729Z,37.87
2018-12-19T12:06:37.553Z,36.03
2018-12-19T12:09:14.171Z,38.20
2018-12-19T12:11:50.285Z,37.27
2018-12-19T12:14:26.640Z,36.40
2018-12-19T12:17:02.659Z,35.87
2018-12-19T12:19:38.646Z,36.00
2018-12-19T12:22:14.511Z,37.20
2018-12-19T12:24:50.372Z,37.63
2018-12-19T12:27:26.482Z,35.93
2018-12-19T12:30:03.236Z,34.83
2018-12-19T12:32:39.274Z,38.67
2018-12-19T12:35:14.957Z,35.00
2018-12-19T12:37:52.887Z,36.13
2018-12-19T12:40:29.158Z,38.10
2018-12-19T12:43:05.877Z,39.40
2018-12-19T12:45:43.021Z,37.50
2018-12-19T12:48:19.698Z,39.40
2018-12-19T12:50:56.351Z,37.73
2018-12-19T12:53:32.172Z,37.00
2018-12-19T12:56:08.118Z,35.30
2018-12-19T12:58:44.123Z,39.00
2018-12-19T13:01:20.224Z,51.87
2018-12-19T13:03:56.588Z,47.40
2018-12-19T13:06:32.372Z,46.17
2018-12-19T13:09:08.892Z,46.10
2018-12-19T13:11:44.975Z,40.23
2018-12-19T13:14:20.877Z,30.37
2018-12-19T13:16:56.907Z,30.80
2018-12-19T13:19:33.558Z,27.27
2018-12-19T13:22:09.586Z,26.00
2018-12-19T13:24:45.778Z,26.30
2018-12-19T13:27:21.551Z,25.37
2018-12-19T13:29:57.771Z,23.83
2018-12-19T13:32:33.676Z,24.50
2018-12-19T13:35:09.580Z,25.50
2018-12-19T13:37:45.516Z,26.43
2018-12-19T13:40:21.282Z,25.50
2018-12-19T13:42:57.254Z,24.90
2018-12-19T13:45:34.167Z,24.57
2018-12-19T13:48:10.018Z,25.33
2018-12-19T13:50:46.148Z,24.93
2018-12-19T13:53:22.093Z,27.60
2018-12-19T13:55:58.028Z,29.63
2018-12-19T13:58:34.312Z,27.97
2018-12-19T14:01:10.579Z,25.97
2018-12-19T14:03:46.274Z,25.53
2018-12-19T14:06:22.848Z,23.37
2018-12-19T14:08:59.261Z,23.50
2018-12-19T14:11:34.854Z,23.83
2018-12-19T14:14:11.101Z,25.53
2018-12-19T14:16:46.960Z,24.70
2018-12-19T14:19:24.036Z,26.60
2018-12-19T14:22:00.731Z,26.37
2018-12-19T14:24:36.621Z,26.90
2018-12-19T14:27:12.617Z,27.53
2018-12-19T14:29:48.774Z,27.10
2018-12-19T14:32:25.128Z,27.40
2018-12-19T14:35:01.049Z,29.73
2018-12-19T14:37:36.911Z,27.00
2018-12-19T14:40:12.927Z,27.53
2018-12-19T14:42:48.858Z,28.67
2018-12-19T14:45:24.985Z,34.47
2018-12-19T14:48:00.879Z,31.00
2018-12-19T14:50:36.743Z,31.40
2018-12-19T14:53:12.620Z,33.50
2018-12-19T14:55:48.363Z,31.20
2018-12-19T14:58:24.425Z,30.60
2018-12-19T15:01:00.336Z,29.03
2018-12-19T15:03:36.187Z,31.63
2018-12-19T15:06:12.309Z,30.33
2018-12-19T15:08:48.077Z,31.10
2018-12-19T15:11:25.373Z,29.73
2018-12-19T15:14:01.863Z,30.10
2018-12-19T15:16:38.934Z,30.17
2018-12-19T15:19:15.676Z,30.50
2018-12-19T15:21:52.734Z,35.00
2018-12-19T15:24:30.056Z,36.83
2018-12-19T15:27:06.872Z,36.37
2018-12-19T15:29:43.585Z,36.43
2018-12-19T15:32:21.331Z,40.93
2018-12-19T15:34:58.592Z,44.93
2018-12-19T15:37:35.568Z,52.33
2018-12-19T15:40:12.464Z,46.27
2018-12-19T15:42:49.274Z,44.03
2018-12-19T15:45:25.747Z,42.03
2018-12-19T15:48:02.282Z,43.40
2018-12-19T15:50:38.483Z,41.17
2018-12-19T15:53:15.174Z,40.97
2018-12-19T15:55:51.850Z,39.43
2018-12-19T15:58:27.775Z,44.63
2018-12-19T16:01:03.732Z,44.37
2018-12-19T16:03:40.962Z,44.50
2018-12-19T16:06:18.077Z,47.53
2018-12-19T16:08:54.898Z,46.57
2018-12-19T16:11:32.345Z,45.77
2018-12-19T16:14:08.572Z,48.17
2018-12-19T16:16:44.467Z,45.30
2018-12-19T16:19:20.466Z,42.63
2018-12-19T16:21:57.405Z,41.63
2018-12-19T16:24:34.055Z,38.50
2018-12-19T16:27:11.104Z,35.40
2018-12-19T16:29:47.506Z,35.07
2018-12-19T16:32:23.283Z,32.10
2018-12-19T16:34:59.113Z,30.80
2018-12-19T16:37:35.102Z,31.90
2018-12-19T16:40:11.098Z,32.00
2018-12-19T16:42:46.673Z,32.70
2018-12-19T16:45:22.716Z,32.00
2018-12-19T16:47:58.842Z,31.23
2018-12-19T16:50:36.605Z,31.10
2018-12-19T16:53:13.290Z,29.43
2018-12-19T16:55:50.503Z,27.30
2018-12-19T16:58:27.545Z,26.67
2018-12-19T17:01:04.190Z,25.27
2018-12-19T17:03:42.635Z,21.83
2018-12-19T17:06:21.052Z,23.40
2018-12-19T17:08:57.942Z,28.97
2018-12-19T17:11:35.207Z,28.70
2018-12-19T17:14:11.420Z,28.73
2018-12-19T17:16:48.303Z,27.93
2018-12-19T17:19:25.894Z,28.37
2018-12-19T17:22:03.964Z,28.33
2018-12-19T17:24:41.849Z,29.00
2018-12-19T17:27:17.933Z,29.33
2018-12-19T17:29:53.833Z,28.57
2018-12-19T17:32:30.110Z,26.67
2018-12-19T17:35:08.294Z,27.77
2018-12-19T17:37:45.720Z,28.57
2018-12-19T17:40:21.765Z,29.23
2018-12-19T17:42:59.565Z,29.03
2018-12-19T17:45:35.583Z,28.20
2018-12-19T17:48:12.099Z,26.37
2018-12-19T17:50:48.240Z,25.23
2018-12-19T17:53:24.111Z,25.63
2018-12-19T17:55:59.852Z,26.10
2018-12-19T17:58:36.154Z,24.57
2018-12-19T18:01:13.309Z,26.27
2018-12-19T18:03:49.854Z,23.03
2018-12-19T18:06:27.351Z,26.00
2018-12-19T18:09:05.682Z,24.50
2018-12-19T18:11:44.494Z,23.07
2018-12-19T18:14:20.473Z,21.97
2018-12-19T18:16:56.155Z,21.83
2018-12-19T18:19:32.438Z,20.47
2018-12-19T18:22:09.063Z,21.40
2018-12-19T18:24:46.269Z,19.33
2018-12-19T18:27:22.733Z,21.13
2018-12-19T18:29:59.262Z,20.27
2018-12-19T18:32:36.236Z,21.63
2018-12-19T18:35:15.272Z,22.43
2018-12-19T18:37:53.483Z,22.70
2018-12-19T18:40:30.174Z,20.73
2018-12-19T18:43:12.770Z,23.77
2018-12-19T18:45:48.367Z,22.93
2018-12-19T18:48:25.561Z,23.23
2018-12-19T18:51:01.555Z,20.97
2018-12-19T18:53:37.602Z,19.93
2018-12-19T18:56:14.272Z,24.37
2018-12-19T18:58:51.071Z,24.37
2018-12-19T19:01:28.514Z,24.33
2018-12-19T19:04:05.294Z,23.57
2018-12-19T19:06:42.630Z,23.50
2018-12-19T19:09:19.876Z,22.67
2018-12-19T19:11:56.562Z,24.23
2018-12-19T19:14:32.975Z,26.27
2018-12-19T19:17:10.056Z,27.73
2018-12-19T19:19:47.377Z,26.17
2018-12-19T19:22:23.846Z,27.40
2018-12-19T19:25:00.164Z,25.83
2018-12-19T19:27:36.793Z,25.13
2018-12-19T19:30:12.844Z,25.67
2018-12-19T19:32:49.322Z,25.57
2018-12-19T19:35:33.406Z,26.23
2018-12-19T19:38:10.238Z,26.17
2018-12-19T19:40:47.557Z,27.57
2018-12-19T19:43:26.721Z,27.13
2018-12-19T19:46:02.895Z,28.97
2018-12-19T19:48:39.680Z,27.83
2018-12-19T19:51:17.326Z,28.97
2018-12-19T19:53:56.086Z,29.73
2018-12-19T19:56:35.785Z,31.10
2018-12-19T19:59:12.218Z,31.23
2018-12-19T20:01:50.488Z,33.67
2018-12-19T20:04:27.429Z,42.10
2018-12-19T20:07:04.394Z,37.53
2018-12-19T20:09:41.511Z,44.70
2018-12-19T20:12:18.579Z,35.03
2018-12-19T20:14:56.142Z,26.80
2018-12-19T20:17:32.784Z,28.47
2018-12-19T20:20:10.631Z,27.50
2018-12-19T20:22:48.507Z,30.40
2018-12-19T20:25:26.110Z,29.13
2018-12-19T20:28:02.999Z,33.10
2018-12-19T20:30:39.903Z,29.60
2018-12-19T20:33:16.331Z,30.37
2018-12-19T20:39:46.323Z,34.27
2018-12-19T20:45:52.316Z,31.23
2018-12-19T20:48:28.941Z,30.23
2018-12-19T20:51:05.393Z,31.17
2018-12-19T20:53:41.813Z,30.80
2018-12-19T20:56:18.371Z,30.83
2018-12-19T20:58:55.251Z,33.40
2018-12-19T21:01:32.192Z,32.37
2018-12-19T21:04:08.747Z,33.37
2018-12-19T21:06:45.057Z,33.33
2018-12-19T21:09:22.070Z,34.07
2018-12-19T21:11:59.034Z,33.40
2018-12-19T21:14:34.798Z,33.03
2018-12-19T21:17:16.127Z,30.60
2018-12-19T21:19:52.704Z,30.03
2018-12-19T21:22:30.968Z,30.60
2018-12-19T21:25:07.138Z,35.13
2018-12-19T21:27:44.151Z,33.00
2018-12-19T21:30:21.455Z,31.80
2018-12-19T21:32:57.804Z,31.43
2018-12-19T21:35:34.037Z,32.57
2018-12-19T21:38:10.649Z,33.40
2018-12-19T21:40:46.543Z,34.87
2018-12-19T21:43:23.817Z,36.57
2018-12-19T21:46:00.290Z,35.67
2018-12-19T21:48:37.326Z,34.90
2018-12-19T21:51:13.994Z,35.13
2018-12-19T21:53:50.802Z,36.30
2018-12-19T21:56:26.568Z,40.33
2018-12-19T21:59:02.875Z,35.50
2018-12-19T22:01:40.219Z,35.83
2018-12-19T22:04:17.736Z,42.80
2018-12-19T22:06:54.637Z,44.87
2018-12-19T22:09:31.216Z,43.93
2018-12-19T22:12:07.230Z,42.43
2018-12-19T22:14:43.210Z,39.57
2018-12-19T22:17:24.466Z,37.63
2018-12-19T22:20:01.019Z,36.77
2018-12-19T22:22:36.867Z,34.83
2018-12-19T22:25:12.805Z,37.70
2018-12-19T22:27:49.434Z,36.97
2018-12-19T22:30:26.087Z,35.13
2018-12-19T22:33:01.857Z,36.03
2018-12-19T22:35:38.642Z,41.67
2018-12-19T22:38:14.469Z,38.37
2018-12-19T22:40:50.428Z,40.93
2018-12-19T22:43:26.457Z,38.90
2018-12-19T22:46:02.346Z,38.00
2018-12-19T22:48:38.271Z,36.30
2018-12-19T22:51:14.258Z,36.90
2018-12-19T22:53:50.064Z,42.70
2018-12-19T22:56:26.235Z,44.70
2018-12-19T22:59:02.185Z,39.23
2018-12-19T23:01:43.394Z,40.33
2018-12-19T23:04:19.875Z,37.33
2018-12-19T23:06:55.935Z,37.30
2018-12-19T23:09:31.985Z,43.20
2018-12-19T23:12:08.157Z,41.83
2018-12-19T23:14:43.984Z,54.53
2018-12-19T23:17:30.918Z,34.67
2018-12-19T23:20:12.687Z,34.37
2018-12-19T23:22:54.709Z,40.20
2018-12-19T23:25:36.634Z,37.40
2018-12-19T23:28:14.705Z,40.57
2018-12-19T23:30:51.608Z,44.37
2018-12-19T23:33:27.865Z,51.80
2018-12-19T23:36:04.803Z,50.20
2018-12-19T23:38:41.430Z,53.50
2018-12-19T23:41:17.484Z,60.07
2018-12-19T23:43:53.205Z,64.43
2018-12-19T23:46:29.257Z,61.77
2018-12-19T23:49:05.353Z,64.17
2018-12-19T23:51:41.290Z,59.93
2018-12-19T23:54:17.240Z,59.47
2018-12-19T23:56:53.077Z,60.70
2018-12-19T23:59:29.090Z,69.90
